createdAt,value
2022-08-25T00:00:26.410Z,19.11
2022-08-25T00:02:57.859Z,19.15
2022-08-25T00:05:32.158Z,19.16
2022-08-25T00:08:03.518Z,19.21
2022-08-25T00:10:34.414Z,19.27
2022-08-25T00:13:05.698Z,19.31
2022-08-25T00:15:35.565Z,19.32
2022-08-25T00:18:11.355Z,19.33
2022-08-25T00:20:50.467Z,19.34
2022-08-25T00:23:21.089Z,19.35
2022-08-25T00:25:51.261Z,19.33
2022-08-25T00:28:20.781Z,19.33
2022-08-25T00:30:50.770Z,19.31
2022-08-25T00:33:22.182Z,19.33
2022-08-25T00:35:51.590Z,19.39
2022-08-25T00:38:21.936Z,19.43
2022-08-25T00:41:07.215Z,19.46
2022-08-25T00:44:05.568Z,19.48
2022-08-25T00:46:52.620Z,19.43
2022-08-25T00:49:30.116Z,19.45
2022-08-25T00:52:09.429Z,19.52
2022-08-25T00:54:48.925Z,19.56
2022-08-25T00:57:34.026Z,19.55
2022-08-25T01:00:18.303Z,19.53
2022-08-25T01:02:49.270Z,19.51
2022-08-25T01:05:20.410Z,19.55
2022-08-25T01:07:50.740Z,19.59
2022-08-25T01:10:23.963Z,19.63
2022-08-25T01:12:57.149Z,19.70
2022-08-25T01:15:26.484Z,19.75
2022-08-25T01:17:59.858Z,19.78
2022-08-25T01:20:32.438Z,19.76
2022-08-25T01:23:03.023Z,19.75
2022-08-25T01:26:03.202Z,19.78
2022-08-25T01:28:33.475Z,19.80
2022-08-25T01:31:03.030Z,19.81
2022-08-25T01:33:32.756Z,19.78
2022-08-25T01:36:02.612Z,19.76
2022-08-25T01:38:31.738Z,19.74
2022-08-25T01:41:01.226Z,19.69
2022-08-25T01:43:40.170Z,19.62
2022-08-25T01:46:09.480Z,19.55
2022-08-25T01:48:38.867Z,19.50
2022-08-25T01:51:08.473Z,19.36
2022-08-25T01:53:37.768Z,19.25
2022-08-25T01:56:13.914Z,19.13
2022-08-25T01:58:47.749Z,19.00
2022-08-25T02:01:22.491Z,18.90
2022-08-25T02:03:55.615Z,18.81
2022-08-25T02:06:31.057Z,18.65
2022-08-25T02:09:20.647Z,18.51
2022-08-25T02:11:50.374Z,18.35
2022-08-25T02:14:21.085Z,18.24
2022-08-25T02:16:54.115Z,18.11
2022-08-25T02:19:26.972Z,18.00
2022-08-25T02:21:56.848Z,17.90
2022-08-25T02:24:26.887Z,17.81
2022-08-25T02:26:56.439Z,17.77
2022-08-25T02:29:25.962Z,17.76
2022-08-25T02:31:55.503Z,17.74
2022-08-25T02:34:24.965Z,17.70
2022-08-25T02:36:54.374Z,17.64
2022-08-25T02:39:23.778Z,17.60
2022-08-25T02:41:53.179Z,17.55
2022-08-25T02:44:22.466Z,17.48
2022-08-25T02:46:51.847Z,17.39
2022-08-25T02:49:21.250Z,17.31
2022-08-25T02:51:50.556Z,17.25
2022-08-25T02:54:19.770Z,17.20
2022-08-25T02:56:49.719Z,17.17
2022-08-25T02:59:22.229Z,17.14
2022-08-25T03:01:51.344Z,17.12
2022-08-25T03:04:20.925Z,17.11
2022-08-25T03:06:50.388Z,17.05
2022-08-25T03:09:19.537Z,16.98
2022-08-25T03:11:48.877Z,16.93
2022-08-25T03:14:18.156Z,16.87
2022-08-25T03:16:47.870Z,16.81
2022-08-25T03:19:18.725Z,16.76
2022-08-25T03:21:47.974Z,16.67
2022-08-25T03:24:17.490Z,16.60
2022-08-25T03:26:57.201Z,16.56
2022-08-25T03:29:32.144Z,16.53
2022-08-25T03:32:03.027Z,16.50
2022-08-25T03:34:33.138Z,16.45
2022-08-25T03:37:03.426Z,16.41
2022-08-25T03:39:32.775Z,16.37
2022-08-25T03:42:04.111Z,16.33
2022-08-25T03:44:33.183Z,16.30
2022-08-25T03:47:02.487Z,16.27
2022-08-25T03:49:33.253Z,16.21
2022-08-25T03:52:04.249Z,16.17
2022-08-25T03:54:33.557Z,16.11
2022-08-25T03:57:03.030Z,16.05
2022-08-25T03:59:32.371Z,15.98
2022-08-25T04:02:02.907Z,15.90
2022-08-25T04:04:32.631Z,15.84
2022-08-25T04:07:01.970Z,15.79
2022-08-25T04:09:35.245Z,15.79
2022-08-25T04:12:06.632Z,15.77
2022-08-25T04:14:36.304Z,15.73
2022-08-25T04:17:06.518Z,15.68
2022-08-25T04:19:36.785Z,15.61
2022-08-25T04:22:06.289Z,15.55
2022-08-25T04:24:35.675Z,15.51
2022-08-25T04:27:04.979Z,15.52
2022-08-25T04:29:34.138Z,15.49
2022-08-25T04:32:06.433Z,15.48
2022-08-25T04:34:35.738Z,15.48
2022-08-25T04:37:08.909Z,15.47
2022-08-25T04:39:39.283Z,15.47
2022-08-25T04:42:08.894Z,15.47
2022-08-25T04:44:38.179Z,15.44
2022-08-25T04:47:07.767Z,15.41
2022-08-25T04:49:38.325Z,15.38
2022-08-25T04:52:12.992Z,15.32
2022-08-25T04:54:44.969Z,15.26
2022-08-25T04:57:14.371Z,15.19
2022-08-25T04:59:43.500Z,15.10
2022-08-25T05:02:12.860Z,15.04
2022-08-25T05:04:42.705Z,15.02
2022-08-25T05:07:12.891Z,15.01
2022-08-25T05:09:42.292Z,15.00
2022-08-25T05:12:11.714Z,14.99
2022-08-25T05:14:41.921Z,14.95
2022-08-25T05:17:11.412Z,14.93
2022-08-25T05:19:41.042Z,14.84
2022-08-25T05:22:10.212Z,14.82
2022-08-25T05:24:39.407Z,14.77
2022-08-25T05:27:08.643Z,14.70
2022-08-25T05:29:38.216Z,14.68
2022-08-25T05:32:08.084Z,14.66
2022-08-25T05:34:38.151Z,14.63
2022-08-25T05:37:10.384Z,14.62
2022-08-25T05:39:41.551Z,14.62
2022-08-25T05:42:10.946Z,14.61
2022-08-25T05:44:40.073Z,14.56
2022-08-25T05:47:09.243Z,14.47
2022-08-25T05:49:38.535Z,14.40
2022-08-25T05:52:07.956Z,14.35
2022-08-25T05:54:37.333Z,14.31
2022-08-25T05:57:07.265Z,14.28
2022-08-25T05:59:37.137Z,14.23
2022-08-25T06:02:25.691Z,14.20
2022-08-25T06:04:55.124Z,14.18
2022-08-25T06:07:24.419Z,14.14
2022-08-25T06:09:56.478Z,14.04
2022-08-25T06:12:25.688Z,14.01
2022-08-25T06:14:54.782Z,13.99
2022-08-25T06:17:24.153Z,13.94
2022-08-25T06:19:56.044Z,13.89
2022-08-25T06:22:27.150Z,13.79
2022-08-25T06:24:57.067Z,13.66
2022-08-25T06:27:26.291Z,13.62
2022-08-25T06:29:56.030Z,13.56
2022-08-25T06:32:25.600Z,13.45
2022-08-25T06:34:55.378Z,13.38
2022-08-25T06:37:25.410Z,13.37
2022-08-25T06:39:54.979Z,13.39
2022-08-25T06:42:24.215Z,13.40
2022-08-25T06:44:53.696Z,13.38
2022-08-25T06:47:22.968Z,13.37
2022-08-25T06:49:52.236Z,13.31
2022-08-25T06:52:21.753Z,13.23
2022-08-25T06:54:58.773Z,13.19
2022-08-25T06:57:28.125Z,13.19
2022-08-25T06:59:57.396Z,13.22
2022-08-25T07:02:26.613Z,13.23
2022-08-25T07:04:58.866Z,13.22
2022-08-25T07:07:28.224Z,13.21
2022-08-25T07:10:14.161Z,13.22
2022-08-25T07:12:48.764Z,13.22
2022-08-25T07:15:20.502Z,13.16
2022-08-25T07:17:51.298Z,13.03
2022-08-25T07:20:21.048Z,12.94
2022-08-25T07:22:51.045Z,12.83
2022-08-25T07:25:20.665Z,12.77
2022-08-25T07:27:49.788Z,12.77
2022-08-25T07:30:20.412Z,12.78
2022-08-25T07:32:54.960Z,12.76
2022-08-25T07:35:26.615Z,12.75
2022-08-25T07:38:10.260Z,12.73
2022-08-25T07:40:44.951Z,12.71
2022-08-25T07:43:24.036Z,12.72
2022-08-25T07:45:53.364Z,12.69
2022-08-25T07:48:23.253Z,12.66
2022-08-25T07:50:52.901Z,12.60
2022-08-25T07:53:22.728Z,12.56
2022-08-25T07:55:53.568Z,12.52
2022-08-25T07:58:23.814Z,12.50
2022-08-25T08:00:54.332Z,12.45
2022-08-25T08:03:44.702Z,12.47
2022-08-25T08:06:17.650Z,12.45
2022-08-25T08:08:50.421Z,12.41
2022-08-25T08:11:29.638Z,12.35
2022-08-25T08:14:01.227Z,12.27
2022-08-25T08:16:32.367Z,12.22
2022-08-25T08:19:04.213Z,12.18
2022-08-25T08:21:37.986Z,12.11
2022-08-25T08:24:24.813Z,12.08
2022-08-25T08:26:58.902Z,12.04
2022-08-25T08:29:29.014Z,11.96
2022-08-25T08:31:58.137Z,11.93
2022-08-25T08:34:27.938Z,11.90
2022-08-25T08:36:58.101Z,11.87
2022-08-25T08:39:28.627Z,11.82
2022-08-25T08:42:19.599Z,11.78
2022-08-25T08:45:18.399Z,11.73
2022-08-25T08:48:11.138Z,11.71
2022-08-25T08:51:13.692Z,11.71
2022-08-25T08:54:03.205Z,11.69
2022-08-25T08:56:45.282Z,11.66
2022-08-25T08:59:30.425Z,11.64
2022-08-25T09:02:04.079Z,11.60
2022-08-25T09:04:55.202Z,11.56
2022-08-25T09:07:35.954Z,11.49
2022-08-25T09:10:06.056Z,11.47
2022-08-25T09:12:48.031Z,11.43
2022-08-25T09:16:20.622Z,11.37
2022-08-25T09:19:44.520Z,11.34
2022-08-25T09:22:35.813Z,11.32
2022-08-25T09:25:18.779Z,11.25
2022-08-25T09:28:35.181Z,11.21
2022-08-25T09:31:19.888Z,11.18
2022-08-25T09:33:49.401Z,11.13
2022-08-25T09:36:20.894Z,11.08
2022-08-25T09:38:50.137Z,11.01
2022-08-25T09:41:59.470Z,10.97
2022-08-25T09:44:48.932Z,10.96
2022-08-25T09:47:26.645Z,10.94
2022-08-25T09:50:04.582Z,10.93
2022-08-25T09:52:43.479Z,10.90
2022-08-25T09:55:15.566Z,10.83
2022-08-25T09:57:57.824Z,10.81
2022-08-25T10:00:36.372Z,10.76
2022-08-25T10:03:11.651Z,10.70
2022-08-25T10:06:00.454Z,10.69
2022-08-25T10:08:58.472Z,10.65
2022-08-25T10:11:46.343Z,10.55
2022-08-25T10:14:37.427Z,10.40
2022-08-25T10:17:29.438Z,10.30
2022-08-25T10:20:32.988Z,10.28
2022-08-25T10:23:16.402Z,10.28
2022-08-25T10:25:59.477Z,10.28
2022-08-25T10:28:56.860Z,10.29
2022-08-25T10:31:59.036Z,10.31
2022-08-25T10:34:56.228Z,10.39
2022-08-25T10:38:04.334Z,10.42
2022-08-25T10:40:55.407Z,10.38
2022-08-25T10:44:02.381Z,10.37
2022-08-25T10:46:40.654Z,10.34
2022-08-25T10:49:29.212Z,10.36
2022-08-25T10:52:08.876Z,10.41
2022-08-25T10:54:58.898Z,10.45
2022-08-25T10:57:51.145Z,10.44
2022-08-25T11:00:31.822Z,10.39
2022-08-25T11:03:57.870Z,10.36
2022-08-25T11:06:53.041Z,10.33
2022-08-25T11:09:36.447Z,10.28
2022-08-25T11:12:20.815Z,10.24
2022-08-25T11:15:00.916Z,10.15
2022-08-25T11:17:56.518Z,10.12
2022-08-25T11:20:34.614Z,10.09
2022-08-25T11:23:41.156Z,10.06
2022-08-25T11:26:21.159Z,10.04
2022-08-25T11:29:18.172Z,9.97
2022-08-25T11:31:53.818Z,9.96
2022-08-25T11:34:24.798Z,9.94
2022-08-25T11:37:24.291Z,9.95
2022-08-25T11:40:12.772Z,9.98
2022-08-25T11:43:35.516Z,9.96
2022-08-25T11:46:27.999Z,9.94
2022-08-25T11:50:02.305Z,9.98
2022-08-25T11:52:48.214Z,10.04
2022-08-25T11:55:22.966Z,10.03
2022-08-25T11:58:14.289Z,10.03
2022-08-25T12:00:46.318Z,10.07
2022-08-25T12:03:35.177Z,10.07
2022-08-25T12:06:26.170Z,10.09
2022-08-25T12:09:18.258Z,10.18
2022-08-25T12:11:59.269Z,10.23
2022-08-25T12:14:29.381Z,10.18
2022-08-25T12:17:01.346Z,10.10
2022-08-25T12:19:39.870Z,10.06
2022-08-25T12:22:12.127Z,9.98
2022-08-25T12:24:50.960Z,9.83
2022-08-25T12:27:45.150Z,9.79
2022-08-25T12:30:31.771Z,9.79
2022-08-25T12:33:40.308Z,9.84
2022-08-25T12:36:12.926Z,9.91
2022-08-25T12:38:51.886Z,9.95
2022-08-25T12:41:31.052Z,9.93
2022-08-25T12:44:44.804Z,9.91
2022-08-25T12:47:33.388Z,9.91
2022-08-25T12:50:44.602Z,9.93
2022-08-25T12:53:36.898Z,9.93
2022-08-25T12:56:47.817Z,9.96
2022-08-25T12:59:26.166Z,9.95
2022-08-25T13:02:22.869Z,9.97
2022-08-25T13:05:24.079Z,9.94
2022-08-25T13:08:47.014Z,9.87
2022-08-25T13:11:48.109Z,9.87
2022-08-25T13:14:57.672Z,9.86
2022-08-25T13:17:34.878Z,9.86
2022-08-25T13:20:26.756Z,9.87
2022-08-25T13:23:04.094Z,9.90
2022-08-25T13:25:49.294Z,9.93
2022-08-25T13:28:37.319Z,9.96
2022-08-25T13:31:23.107Z,10.01
2022-08-25T13:34:05.839Z,10.02
2022-08-25T13:37:14.072Z,10.03
2022-08-25T13:39:56.215Z,9.99
2022-08-25T13:42:28.973Z,10.01
2022-08-25T13:44:58.627Z,10.03
2022-08-25T13:47:43.794Z,10.03
2022-08-25T13:50:32.801Z,10.07
2022-08-25T13:53:16.747Z,10.14
2022-08-25T13:56:01.657Z,10.15
2022-08-25T13:58:44.712Z,10.15
2022-08-25T14:01:48.080Z,10.13
2022-08-25T14:04:26.331Z,10.12
2022-08-25T14:07:25.989Z,10.11
2022-08-25T14:10:07.393Z,10.19
2022-08-25T14:12:47.311Z,10.34
2022-08-25T14:15:19.584Z,10.42
2022-08-25T14:18:31.576Z,10.44
2022-08-25T14:21:11.381Z,10.49
2022-08-25T14:23:41.423Z,10.54
2022-08-25T14:26:10.735Z,10.59
2022-08-25T14:28:40.912Z,10.64
2022-08-25T14:31:26.769Z,10.70
2022-08-25T14:34:04.870Z,10.77
2022-08-25T14:36:36.662Z,10.82
2022-08-25T14:39:08.939Z,10.90
2022-08-25T14:41:41.970Z,10.95
2022-08-25T14:44:12.973Z,11.00
2022-08-25T14:46:52.679Z,11.06
2022-08-25T14:49:30.854Z,11.12
2022-08-25T14:52:20.384Z,11.17
2022-08-25T14:54:52.319Z,11.26
2022-08-25T14:57:21.888Z,11.36
2022-08-25T14:59:53.831Z,11.47
2022-08-25T15:02:29.712Z,11.59
2022-08-25T15:05:06.878Z,11.68
2022-08-25T15:07:55.773Z,11.74
2022-08-25T15:10:25.432Z,11.79
2022-08-25T15:12:54.901Z,11.86
2022-08-25T15:15:27.591Z,11.95
2022-08-25T15:18:00.946Z,12.01
2022-08-25T15:20:30.839Z,12.09
2022-08-25T15:23:00.120Z,12.18
2022-08-25T15:25:30.334Z,12.27
2022-08-25T15:28:00.051Z,12.38
2022-08-25T15:30:30.965Z,12.47
2022-08-25T15:33:00.711Z,12.59
2022-08-25T15:35:30.519Z,12.70
2022-08-25T15:37:59.704Z,12.78
2022-08-25T15:40:30.873Z,12.84
2022-08-25T15:43:00.252Z,12.92
2022-08-25T15:45:30.273Z,13.02
2022-08-25T15:48:00.106Z,13.11
2022-08-25T15:50:29.665Z,13.24
2022-08-25T15:52:59.182Z,13.34
2022-08-25T15:55:28.730Z,13.44
2022-08-25T15:57:57.912Z,13.55
2022-08-25T16:00:27.276Z,13.63
2022-08-25T16:03:01.683Z,13.67
2022-08-25T16:05:31.886Z,13.71
2022-08-25T16:08:04.222Z,13.76
2022-08-25T16:10:39.257Z,13.80
2022-08-25T16:13:10.981Z,13.87
2022-08-25T16:15:41.684Z,13.97
2022-08-25T16:18:11.995Z,14.12
2022-08-25T16:20:47.574Z,14.25
2022-08-25T16:23:22.093Z,14.36
2022-08-25T16:25:51.955Z,14.43
2022-08-25T16:28:24.438Z,14.48
2022-08-25T16:30:55.197Z,14.57
2022-08-25T16:33:24.464Z,14.65
2022-08-25T16:35:55.161Z,14.72
2022-08-25T16:38:24.731Z,14.73
2022-08-25T16:40:54.886Z,14.78
2022-08-25T16:43:24.767Z,14.83
2022-08-25T16:46:09.533Z,14.86
2022-08-25T16:48:41.619Z,14.91
2022-08-25T16:51:15.511Z,14.97
2022-08-25T16:54:03.845Z,15.08
2022-08-25T16:56:37.856Z,15.17
2022-08-25T16:59:08.473Z,15.25
2022-08-25T17:01:39.155Z,15.34
2022-08-25T17:04:12.692Z,15.42
2022-08-25T17:06:49.605Z,15.46
2022-08-25T17:09:23.776Z,15.52
2022-08-25T17:11:57.639Z,15.53
2022-08-25T17:14:27.472Z,15.56
2022-08-25T17:16:56.595Z,15.59
2022-08-25T17:19:26.864Z,15.65
2022-08-25T17:21:56.947Z,15.71
2022-08-25T17:24:29.238Z,15.81
2022-08-25T17:27:01.967Z,15.88
2022-08-25T17:29:31.303Z,15.96
2022-08-25T17:32:00.842Z,16.04
2022-08-25T17:34:31.102Z,16.12
2022-08-25T17:37:00.979Z,16.21
2022-08-25T17:39:32.377Z,16.32
2022-08-25T17:42:01.971Z,16.43
2022-08-25T17:44:31.184Z,16.53
2022-08-25T17:47:00.832Z,16.65
2022-08-25T17:49:30.244Z,16.78
2022-08-25T17:52:00.256Z,16.94
2022-08-25T17:54:30.087Z,17.11
2022-08-25T17:57:01.485Z,17.30
2022-08-25T17:59:32.445Z,17.45
2022-08-25T18:02:02.157Z,17.64
2022-08-25T18:04:31.732Z,17.82
2022-08-25T18:07:01.108Z,17.95
2022-08-25T18:09:30.403Z,18.02
2022-08-25T18:11:59.862Z,18.07
2022-08-25T18:14:29.441Z,18.19
2022-08-25T18:16:58.885Z,18.34
2022-08-25T18:19:28.299Z,18.49
2022-08-25T18:21:57.602Z,18.67
2022-08-25T18:24:27.217Z,18.89
2022-08-25T18:26:56.643Z,19.03
2022-08-25T18:29:26.021Z,19.14
2022-08-25T18:32:00.372Z,19.23
2022-08-25T18:34:30.314Z,19.27
2022-08-25T18:37:19.955Z,19.31
2022-08-25T18:40:07.533Z,19.39
2022-08-25T18:42:37.518Z,19.48
2022-08-25T18:45:12.466Z,19.54
2022-08-25T18:47:42.590Z,19.63
2022-08-25T18:50:12.144Z,19.71
2022-08-25T18:52:42.705Z,19.76
2022-08-25T18:55:15.710Z,19.79
2022-08-25T18:57:44.932Z,19.83
2022-08-25T19:00:19.886Z,19.82
2022-08-25T19:02:51.883Z,19.89
2022-08-25T19:05:26.952Z,19.89
2022-08-25T19:07:57.893Z,19.87
2022-08-25T19:10:28.165Z,19.89
2022-08-25T19:13:08.005Z,19.90
2022-08-25T19:15:40.853Z,19.92
2022-08-25T19:18:11.038Z,19.94
2022-08-25T19:20:41.492Z,19.95
2022-08-25T19:23:11.083Z,19.98
2022-08-25T19:25:41.526Z,20.01
2022-08-25T19:28:14.511Z,20.03
2022-08-25T19:30:49.777Z,20.08
2022-08-25T19:33:42.058Z,20.11
2022-08-25T19:36:11.458Z,20.03
2022-08-25T19:38:40.929Z,20.00
2022-08-25T19:41:14.559Z,20.00
2022-08-25T19:43:56.706Z,20.06
2022-08-25T19:46:35.548Z,20.11
2022-08-25T19:49:23.494Z,20.26
2022-08-25T19:51:56.344Z,20.35
2022-08-25T19:54:35.832Z,20.35
2022-08-25T19:57:10.633Z,20.36
2022-08-25T19:59:46.481Z,20.36
2022-08-25T20:02:30.701Z,20.37
2022-08-25T20:05:01.147Z,20.42
2022-08-25T20:07:32.879Z,20.44
2022-08-25T20:10:04.294Z,20.50
2022-08-25T20:12:33.822Z,20.54
2022-08-25T20:15:04.527Z,20.58
2022-08-25T20:17:34.582Z,20.65
2022-08-25T20:20:10.601Z,20.75
2022-08-25T20:22:41.252Z,20.82
2022-08-25T20:25:20.903Z,20.86
2022-08-25T20:27:58.078Z,20.91
2022-08-25T20:30:31.184Z,20.96
2022-08-25T20:33:00.752Z,20.99
2022-08-25T20:35:30.767Z,21.04
2022-08-25T20:38:01.992Z,21.09
2022-08-25T20:40:33.578Z,21.14
2022-08-25T20:43:04.719Z,21.16
2022-08-25T20:45:40.408Z,21.18
2022-08-25T20:48:09.967Z,21.21
2022-08-25T20:50:41.389Z,21.25
2022-08-25T20:53:13.425Z,21.31
2022-08-25T20:55:46.378Z,21.38
2022-08-25T20:58:16.617Z,21.46
2022-08-25T21:00:47.801Z,21.47
2022-08-25T21:03:17.059Z,21.48
2022-08-25T21:05:48.978Z,21.47
2022-08-25T21:08:23.865Z,21.43
2022-08-25T21:10:54.919Z,21.43
2022-08-25T21:13:24.156Z,21.47
2022-08-25T21:15:53.266Z,21.54
2022-08-25T21:18:22.524Z,21.62
2022-08-25T21:20:51.521Z,21.72
2022-08-25T21:23:21.746Z,21.83
2022-08-25T21:25:51.565Z,21.91
2022-08-25T21:28:21.336Z,21.96
2022-08-25T21:30:50.656Z,22.01
2022-08-25T21:33:22.120Z,22.11
2022-08-25T21:35:55.586Z,22.21
2022-08-25T21:38:24.829Z,22.33
2022-08-25T21:40:54.167Z,22.48
2022-08-25T21:43:24.589Z,22.63
2022-08-25T21:45:54.431Z,22.81
2022-08-25T21:48:25.420Z,22.99
2022-08-25T21:51:11.781Z,23.17
2022-08-25T21:53:41.853Z,23.33
2022-08-25T21:56:18.640Z,23.45
2022-08-25T21:58:50.444Z,23.60
2022-08-25T22:01:22.128Z,23.76
2022-08-25T22:03:52.490Z,23.92
2022-08-25T22:06:23.547Z,24.07
2022-08-25T22:08:52.828Z,24.21
2022-08-25T22:11:23.727Z,24.31
2022-08-25T22:13:54.703Z,24.43
2022-08-25T22:16:26.226Z,24.53
2022-08-25T22:18:55.856Z,24.51
2022-08-25T22:21:25.868Z,24.54
2022-08-25T22:23:58.560Z,24.55
2022-08-25T22:26:31.107Z,24.57
2022-08-25T22:29:02.664Z,24.60
2022-08-25T22:31:34.172Z,24.60
2022-08-25T22:34:04.476Z,24.54
2022-08-25T22:36:40.284Z,24.49
2022-08-25T22:39:11.142Z,24.49
2022-08-25T22:41:41.744Z,24.47
2022-08-25T22:44:12.337Z,24.53
2022-08-25T22:46:41.374Z,24.58
2022-08-25T22:49:14.566Z,24.55
2022-08-25T22:51:43.797Z,24.52
2022-08-25T22:54:16.010Z,24.51
2022-08-25T22:56:45.284Z,24.55
2022-08-25T22:59:15.895Z,24.58
2022-08-25T23:01:48.204Z,24.50
2022-08-25T23:04:17.541Z,24.43
2022-08-25T23:06:48.689Z,24.40
2022-08-25T23:09:18.778Z,24.24
2022-08-25T23:11:47.840Z,24.14
2022-08-25T23:14:21.687Z,24.08
2022-08-25T23:16:51.491Z,24.07
2022-08-25T23:19:20.963Z,23.97
2022-08-25T23:22:08.364Z,23.83
2022-08-25T23:24:44.832Z,23.74
2022-08-25T23:27:20.245Z,23.71
2022-08-25T23:29:52.170Z,23.64
2022-08-25T23:32:22.383Z,23.56
2022-08-25T23:34:51.663Z,23.51
2022-08-25T23:37:20.827Z,23.43
2022-08-25T23:39:50.368Z,23.36
2022-08-25T23:42:22.697Z,23.28
2022-08-25T23:44:52.484Z,23.22
2022-08-25T23:47:21.685Z,23.17
2022-08-25T23:49:52.143Z,23.15
2022-08-25T23:52:21.654Z,23.13
2022-08-25T23:54:50.936Z,23.11
2022-08-25T23:57:20.388Z,23.14
2022-08-25T23:59:49.532Z,23.15
